METAR Data
IDs: Format: Raw Decoded Include TAF

Data at: 0317 UTC 18 Jun 2019

PAUN 180256Z AUTO 34010KT 10SM FEW100 18/11 A2960 RMK AO2 SLP027 T01780106 55012
PAUN 180156Z AUTO 29016KT 10SM CLR 18/12 A2960 RMK AO2 SLP026 T01780117
PAUN 180056Z AUTO 25009KT 10SM CLR 17/12 A2962 RMK AO2 SLP034 T01720117
PAUN 172356Z AUTO 31015KT 10SM CLR 18/11 A2963 RMK AO2 SLP039 T01780106 10178 20144 58010
PAUN 172156Z AUTO 31012KT 10SM FEW120 16/11 A2966 RMK AO2 SLP048 T01610106
PAUN 172056Z AUTO 32016KT 10SM CLR 16/09 A2966 RMK AO2 SLP049 T01610094 56010
PAUN 171956Z AUTO 32013KT 10SM CLR 16/10 A2967 RMK AO2 SLP052 T01560100
PAUN 171856Z AUTO 32014KT 8SM CLR 15/09 A2968 RMK AO2 SLP054 T01500089
PAUN 171756Z AUTO 31009KT 9SM CLR 15/09 A2969 RMK AO2 SLP059 T01500094 10150 20083 58006
PAUN 171656Z AUTO 32006KT 10SM CLR 13/09 A2970 RMK AO2 SLP062 T01330089
PAUN 171556Z AUTO 00000KT 10SM BKN060 11/09 A2971 RMK AO2 SLP065 T01110089
PAUN 171456Z AUTO 10003KT 10SM CLR 09/08 A2971 RMK AO2 SLP065 T00940078 58005
PAUN 171356Z AUTO 10003KT 10SM CLR 08/07 A2972 RMK AO2 SLP069 T00830072
PAUN 171256Z AUTO 11004KT 10SM CLR 09/06 A2973 RMK AO2 SLP070 T00890061
PAUN 171156Z AUTO 00000KT 9SM CLR 10/07 A2973 RMK AO2 SLP071 T01000072 10200 20100 51001
PAUN 171056Z AUTO 08003KT 10SM OVC100 12/09 A2973 RMK AO2 SLP071 T01170094
PAUN 170956Z AUTO 00000KT 10SM CLR 13/10 A2973 RMK AO2 SLP072 T01280100
PAUN 170856Z AUTO VRB04KT 10SM BKN100 17/09 A2972 RMK AO2 SLP070 T01720094 402000072 53002
PAUN 170756Z AUTO 00000KT 10SM BKN100 15/12 A2972 RMK AO2 SLP068 T01500122
PAUN 170656Z AUTO VRB03KT 10SM BKN100 BKN110 17/12 A2972 RMK AO2 SLP068 T01670122
PAUN 170556Z AUTO 31010KT 10SM BKN110 17/13 A2972 RMK AO2 SLP067 60000 T01670128 10194 20167 56009
PAUN 170456Z AUTO 32011KT 10SM FEW065 BKN095 OVC110 17/12 A2972 RMK AO2 SLP070 T01720122
PAUN 170356Z AUTO 31009KT 10SM SCT110 18/13 A2974 RMK AO2 SLP074 T01780128
PAUN 170256Z AUTO 31008KT 10SM FEW055 BKN090 19/12 A2974 RMK AO2 RAB03E21 SLP076 P0000 60000 T01890117 56015
PAUN 170156Z AUTO 28008KT 10SM FEW070 BKN085 BKN110 18/13 A2975 RMK AO2 SLP078 T01830128
PAUN 162356Z AUTO 30008KT 5SM HZ OVC070 18/13 A2979 RMK AO2 SLP091 60000 T01780128 10183 20133 58013
PAUN 162256Z AUTO 30007KT 8SM FEW042 OVC080 16/13 A2980 RMK AO2 RAB00E52 SLP095 P0000 T01610128
PAUN 162156Z AUTO 27006KT 10SM SCT055 BKN095 16/12 A2982 RMK AO2 SLP104 T01560117
PAUN 162056Z AUTO 23006KT 10SM BKN090 15/11 A2983 RMK AO2 SLP104 T01500111 58005
PAUN 161956Z AUTO 27004KT 10SM BKN070 OVC110 14/10 A2983 RMK AO2 SLP107 T01440100
PAUN 161856Z AUTO 28005KT 10SM OVC100 14/10 A2984 RMK AO2 SLP107 T01440100
PAUN 161756Z AUTO 25003KT 10SM BKN095 13/09 A2984 RMK AO2 SLP109 T01330094 10144 20072 56002
PAUN 161656Z AUTO 11003KT 10SM SCT060 BKN085 12/09 A2984 RMK AO2 SLP109 T01220089
PAUN 161556Z AUTO 13004KT 10SM OVC085 09/08 A2984 RMK AO2 SLP110 T00940078